sensor_id;sensor_type;location;lat;lon;timestamp;P1;durP1;ratioP1;P2;durP2;ratioP2
75342;SDS011;63936;51.006;13.764;2023-10-19T00:00:02;9;;;4;;
75342;SDS011;63936;51.006;13.764;2023-10-19T00:02:01;9;;;4;;
75342;SDS011;63936;51.006;13.764;2023-10-19T00:04:03;7;;;3;;
75342;SDS011;63936;51.006;13.764;2023-10-19T00:06:03;9;;;3;;
75342;SDS011;63936;51.006;13.764;2023-10-19T00:08:04;7;;;3;;
75342;SDS011;63936;51.006;13.764;2023-10-19T00:10:04;6;;;3;;
75342;SDS011;63936;51.006;13.764;2023-10-19T00:12:03;8;;;4;;
75342;SDS011;63936;51.006;13.764;2023-10-19T00:14:02;7;;;3;;
75342;SDS011;63936;51.006;13.764;2023-10-19T00:16:02;8;;;4;;
75342;SDS011;63936;51.006;13.764;2023-10-19T00:18:03;8;;;4;;
75342;SDS011;63936;51.006;13.764;2023-10-19T00:20:05;8;;;4;;
75342;SDS011;63936;51.006;13.764;2023-10-19T00:22:03;7;;;3;;
75342;SDS011;63936;51.006;13.764;2023-10-19T00:24:02;8;;;3;;
75342;SDS011;63936;51.006;13.764;2023-10-19T00:26:02;8;;;3;;
75342;SDS011;63936;51.006;13.764;2023-10-19T00:28:03;8;;;4;;
75342;SDS011;63936;51.006;13.764;2023-10-19T00:30:04;8;;;4;;
75342;SDS011;63936;51.006;13.764;2023-10-19T00:32:02;7;;;3;;
75342;SDS011;63936;51.006;13.764;2023-10-19T00:34:04;7;;;3;;
75342;SDS011;63936;51.006;13.764;2023-10-19T00:36:03;6;;;3;;
75342;SDS011;63936;51.006;13.764;2023-10-19T00:38:04;7;;;3;;
75342;SDS011;63936;51.006;13.764;2023-10-19T00:40:08;11;;;4;;
75342;SDS011;63936;51.006;13.764;2023-10-19T00:42:01;11;;;4;;
75342;SDS011;63936;51.006;13.764;2023-10-19T00:44:02;9;;;5;;
75342;SDS011;63936;51.006;13.764;2023-10-19T00:46:06;9;;;5;;
75342;SDS011;63936;51.006;13.764;2023-10-19T00:48:04;8;;;4;;
75342;SDS011;63936;51.006;13.764;2023-10-19T00:50:03;7;;;4;;
75342;SDS011;63936;51.006;13.764;2023-10-19T00:52:02;9;;;5;;
75342;SDS011;63936;51.006;13.764;2023-10-19T00:54:02;9;;;5;;
75342;SDS011;63936;51.006;13.764;2023-10-19T00:56:03;8;;;4;;
75342;SDS011;63936;51.006;13.764;2023-10-19T00:58:02;8;;;4;;
75342;SDS011;63936;51.006;13.764;2023-10-19T01:00:05;7;;;4;;
75342;SDS011;63936;51.006;13.764;2023-10-19T01:02:01;7;;;4;;
75342;SDS011;63936;51.006;13.764;2023-10-19T01:04:01;8;;;4;;
75342;SDS011;63936;51.006;13.764;2023-10-19T01:06:01;10;;;4;;
75342;SDS011;63936;51.006;13.764;2023-10-19T01:08:01;7;;;3;;
75342;SDS011;63936;51.006;13.764;2023-10-19T01:10:03;8;;;3;;
75342;SDS011;63936;51.006;13.764;2023-10-19T01:12:01;8;;;4;;
75342;SDS011;63936;51.006;13.764;2023-10-19T01:14:17;10;;;5;;
75342;SDS011;63936;51.006;13.764;2023-10-19T01:16:01;9;;;4;;
75342;SDS011;63936;51.006;13.764;2023-10-19T01:18:02;8;;;4;;
75342;SDS011;63936;51.006;13.764;2023-10-19T01:20:06;10;;;5;;
75342;SDS011;63936;51.006;13.764;2023-10-19T01:22:01;8;;;4;;
75342;SDS011;63936;51.006;13.764;2023-10-19T01:24:05;8;;;4;;
75342;SDS011;63936;51.006;13.764;2023-10-19T01:26:02;8;;;5;;
75342;SDS011;63936;51.006;13.764;2023-10-19T01:28:06;8;;;4;;
75342;SDS011;63936;51.006;13.764;2023-10-19T01:30:04;10;;;4;;
75342;SDS011;63936;51.006;13.764;2023-10-19T01:32:02;9;;;4;;
75342;SDS011;63936;51.006;13.764;2023-10-19T01:34:01;8;;;4;;
75342;SDS011;63936;51.006;13.764;2023-10-19T01:36:02;8;;;5;;
75342;SDS011;63936;51.006;13.764;2023-10-19T01:38:02;10;;;4;;
75342;SDS011;63936;51.006;13.764;2023-10-19T01:40:04;8;;;4;;
75342;SDS011;63936;51.006;13.764;2023-10-19T01:42:01;9;;;4;;
75342;SDS011;63936;51.006;13.764;2023-10-19T01:44:02;9;;;5;;
75342;SDS011;63936;51.006;13.764;2023-10-19T01:46:01;9;;;5;;
75342;SDS011;63936;51.006;13.764;2023-10-19T01:48:01;7;;;3;;
75342;SDS011;63936;51.006;13.764;2023-10-19T01:50:03;8;;;4;;
75342;SDS011;63936;51.006;13.764;2023-10-19T01:52:02;9;;;5;;
75342;SDS011;63936;51.006;13.764;2023-10-19T01:54:02;11;;;5;;
75342;SDS011;63936;51.006;13.764;2023-10-19T01:56:01;11;;;5;;
75342;SDS011;63936;51.006;13.764;2023-10-19T01:58:01;11;;;5;;
75342;SDS011;63936;51.006;13.764;2023-10-19T02:00:03;10;;;6;;
75342;SDS011;63936;51.006;13.764;2023-10-19T02:02:01;12;;;5;;
75342;SDS011;63936;51.006;13.764;2023-10-19T02:04:03;10;;;5;;
75342;SDS011;63936;51.006;13.764;2023-10-19T02:06:03;9;;;5;;
75342;SDS011;63936;51.006;13.764;2023-10-19T02:08:02;9;;;5;;
75342;SDS011;63936;51.006;13.764;2023-10-19T02:10:06;8;;;5;;
75342;SDS011;63936;51.006;13.764;2023-10-19T02:12:03;7;;;3;;
75342;SDS011;63936;51.006;13.764;2023-10-19T02:14:01;8;;;4;;
75342;SDS011;63936;51.006;13.764;2023-10-19T02:16:02;8;;;4;;
75342;SDS011;63936;51.006;13.764;2023-10-19T02:18:03;8;;;4;;
75342;SDS011;63936;51.006;13.764;2023-10-19T02:20:04;8;;;5;;
75342;SDS011;63936;51.006;13.764;2023-10-19T02:22:02;9;;;5;;
75342;SDS011;63936;51.006;13.764;2023-10-19T02:24:01;8;;;4;;
75342;SDS011;63936;51.006;13.764;2023-10-19T02:26:01;8;;;4;;
75342;SDS011;63936;51.006;13.764;2023-10-19T02:28:01;8;;;5;;
75342;SDS011;63936;51.006;13.764;2023-10-19T02:30:02;8;;;5;;
75342;SDS011;63936;51.006;13.764;2023-10-19T02:32:01;7;;;4;;
75342;SDS011;63936;51.006;13.764;2023-10-19T02:34:01;8;;;5;;
75342;SDS011;63936;51.006;13.764;2023-10-19T02:36:02;13;;;6;;
75342;SDS011;63936;51.006;13.764;2023-10-19T02:38:02;11;;;5;;
75342;SDS011;63936;51.006;13.764;2023-10-19T02:40:06;9;;;5;;
75342;SDS011;63936;51.006;13.764;2023-10-19T02:42:02;8;;;5;;
75342;SDS011;63936;51.006;13.764;2023-10-19T02:44:01;11;;;5;;
75342;SDS011;63936;51.006;13.764;2023-10-19T02:46:01;9;;;5;;
75342;SDS011;63936;51.006;13.764;2023-10-19T02:48:02;10;;;6;;
75342;SDS011;63936;51.006;13.764;2023-10-19T02:50:03;9;;;5;;
75342;SDS011;63936;51.006;13.764;2023-10-19T02:52:01;8;;;5;;
75342;SDS011;63936;51.006;13.764;2023-10-19T02:54:01;11;;;6;;
75342;SDS011;63936;51.006;13.764;2023-10-19T02:56:09;9;;;4;;
75342;SDS011;63936;51.006;13.764;2023-10-19T02:58:01;10;;;6;;
75342;SDS011;63936;51.006;13.764;2023-10-19T03:00:04;8;;;5;;
75342;SDS011;63936;51.006;13.764;2023-10-19T03:02:03;9;;;5;;
75342;SDS011;63936;51.006;13.764;2023-10-19T03:04:02;11;;;6;;
75342;SDS011;63936;51.006;13.764;2023-10-19T03:06:02;12;;;7;;
75342;SDS011;63936;51.006;13.764;2023-10-19T03:08:02;11;;;6;;
75342;SDS011;63936;51.006;13.764;2023-10-19T03:10:03;10;;;5;;
75342;SDS011;63936;51.006;13.764;2023-10-19T03:12:01;10;;;5;;
75342;SDS011;63936;51.006;13.764;2023-10-19T03:14:01;9;;;5;;
75342;SDS011;63936;51.006;13.764;2023-10-19T03:16:01;7;;;4;;
75342;SDS011;63936;51.006;13.764;2023-10-19T03:18:02;8;;;5;;
75342;SDS011;63936;51.006;13.764;2023-10-19T03:20:03;9;;;4;;
75342;SDS011;63936;51.006;13.764;2023-10-19T03:22:01;10;;;5;;
75342;SDS011;63936;51.006;13.764;2023-10-19T03:24:01;11;;;6;;
75342;SDS011;63936;51.006;13.764;2023-10-19T03:26:01;10;;;6;;
75342;SDS011;63936;51.006;13.764;2023-10-19T03:28:01;10;;;5;;
75342;SDS011;63936;51.006;13.764;2023-10-19T03:30:02;11;;;6;;
75342;SDS011;63936;51.006;13.764;2023-10-19T03:32:01;11;;;5;;
75342;SDS011;63936;51.006;13.764;2023-10-19T03:34:01;11;;;6;;
75342;SDS011;63936;51.006;13.764;2023-10-19T03:36:01;10;;;5;;
75342;SDS011;63936;51.006;13.764;2023-10-19T03:38:01;10;;;5;;
75342;SDS011;63936;51.006;13.764;2023-10-19T03:40:03;8;;;4;;
75342;SDS011;63936;51.006;13.764;2023-10-19T03:42:01;8;;;4;;
75342;SDS011;63936;51.006;13.764;2023-10-19T03:44:01;9;;;5;;
75342;SDS011;63936;51.006;13.764;2023-10-19T03:46:02;9;;;4;;
75342;SDS011;63936;51.006;13.764;2023-10-19T03:48:02;10;;;5;;
75342;SDS011;63936;51.006;13.764;2023-10-19T03:50:03;11;;;6;;
75342;SDS011;63936;51.006;13.764;2023-10-19T03:52:01;10;;;5;;
75342;SDS011;63936;51.006;13.764;2023-10-19T03:54:01;12;;;6;;
75342;SDS011;63936;51.006;13.764;2023-10-19T03:56:03;10;;;6;;
75342;SDS011;63936;51.006;13.764;2023-10-19T03:58:01;9;;;5;;
75342;SDS011;63936;51.006;13.764;2023-10-19T04:00:03;10;;;5;;
75342;SDS011;63936;51.006;13.764;2023-10-19T04:02:01;13;;;7;;
75342;SDS011;63936;51.006;13.764;2023-10-19T04:04:01;12;;;7;;
75342;SDS011;63936;51.006;13.764;2023-10-19T04:06:01;12;;;6;;
75342;SDS011;63936;51.006;13.764;2023-10-19T04:08:01;12;;;6;;
75342;SDS011;63936;51.006;13.764;2023-10-19T04:10:02;9;;;6;;
75342;SDS011;63936;51.006;13.764;2023-10-19T04:12:01;6;;;3;;
75342;SDS011;63936;51.006;13.764;2023-10-19T04:14:01;15;;;7;;
75342;SDS011;63936;51.006;13.764;2023-10-19T04:16:01;12;;;8;;
75342;SDS011;63936;51.006;13.764;2023-10-19T04:18:02;8;;;6;;
75342;SDS011;63936;51.006;13.764;2023-10-19T04:20:02;11;;;7;;
75342;SDS011;63936;51.006;13.764;2023-10-19T04:22:01;15;;;9;;
75342;SDS011;63936;51.006;13.764;2023-10-19T04:24:01;15;;;9;;
75342;SDS011;63936;51.006;13.764;2023-10-19T04:26:01;10;;;6;;
75342;SDS011;63936;51.006;13.764;2023-10-19T04:28:01;10;;;6;;
75342;SDS011;63936;51.006;13.764;2023-10-19T04:30:01;10;;;6;;
75342;SDS011;63936;51.006;13.764;2023-10-19T04:32:01;11;;;7;;
75342;SDS011;63936;51.006;13.764;2023-10-19T04:34:01;12;;;7;;
75342;SDS011;63936;51.006;13.764;2023-10-19T04:36:01;14;;;7;;
75342;SDS011;63936;51.006;13.764;2023-10-19T04:38:03;8;;;4;;
75342;SDS011;63936;51.006;13.764;2023-10-19T04:40:03;9;;;5;;
75342;SDS011;63936;51.006;13.764;2023-10-19T04:42:02;10;;;6;;
75342;SDS011;63936;51.006;13.764;2023-10-19T04:44:02;11;;;6;;
75342;SDS011;63936;51.006;13.764;2023-10-19T04:46:03;16;;;7;;
75342;SDS011;63936;51.006;13.764;2023-10-19T04:48:01;18;;;7;;
75342;SDS011;63936;51.006;13.764;2023-10-19T04:50:03;13;;;8;;
75342;SDS011;63936;51.006;13.764;2023-10-19T04:52:01;13;;;8;;
75342;SDS011;63936;51.006;13.764;2023-10-19T04:54:01;10;;;6;;
75342;SDS011;63936;51.006;13.764;2023-10-19T04:56:02;11;;;6;;
75342;SDS011;63936;51.006;13.764;2023-10-19T04:58:01;9;;;5;;
75342;SDS011;63936;51.006;13.764;2023-10-19T05:00:03;10;;;6;;
75342;SDS011;63936;51.006;13.764;2023-10-19T05:02:02;10;;;6;;
75342;SDS011;63936;51.006;13.764;2023-10-19T05:04:02;10;;;6;;
75342;SDS011;63936;51.006;13.764;2023-10-19T05:06:03;11;;;6;;
75342;SDS011;63936;51.006;13.764;2023-10-19T05:08:03;12;;;7;;
75342;SDS011;63936;51.006;13.764;2023-10-19T05:10:04;12;;;7;;
75342;SDS011;63936;51.006;13.764;2023-10-19T05:12:02;14;;;8;;
75342;SDS011;63936;51.006;13.764;2023-10-19T05:14:02;13;;;7;;
75342;SDS011;63936;51.006;13.764;2023-10-19T05:16:02;11;;;7;;
75342;SDS011;63936;51.006;13.764;2023-10-19T05:18:02;13;;;8;;
75342;SDS011;63936;51.006;13.764;2023-10-19T05:20:02;13;;;9;;
75342;SDS011;63936;51.006;13.764;2023-10-19T05:22:02;14;;;8;;
75342;SDS011;63936;51.006;13.764;2023-10-19T05:24:02;14;;;8;;
75342;SDS011;63936;51.006;13.764;2023-10-19T05:26:03;14;;;8;;
75342;SDS011;63936;51.006;13.764;2023-10-19T05:28:02;12;;;6;;
75342;SDS011;63936;51.006;13.764;2023-10-19T05:30:03;12;;;7;;
75342;SDS011;63936;51.006;13.764;2023-10-19T05:32:01;12;;;7;;
75342;SDS011;63936;51.006;13.764;2023-10-19T05:34:02;11;;;7;;
75342;SDS011;63936;51.006;13.764;2023-10-19T05:36:01;13;;;8;;
75342;SDS011;63936;51.006;13.764;2023-10-19T05:38:03;15;;;8;;
75342;SDS011;63936;51.006;13.764;2023-10-19T05:40:03;15;;;9;;
75342;SDS011;63936;51.006;13.764;2023-10-19T05:42:02;16;;;9;;
75342;SDS011;63936;51.006;13.764;2023-10-19T05:44:02;15;;;9;;
75342;SDS011;63936;51.006;13.764;2023-10-19T05:46:01;12;;;5;;
75342;SDS011;63936;51.006;13.764;2023-10-19T05:48:02;14;;;7;;
75342;SDS011;63936;51.006;13.764;2023-10-19T05:50:04;15;;;8;;
75342;SDS011;63936;51.006;13.764;2023-10-19T05:52:02;15;;;9;;
75342;SDS011;63936;51.006;13.764;2023-10-19T05:54:02;16;;;7;;
75342;SDS011;63936;51.006;13.764;2023-10-19T05:56:02;16;;;6;;
75342;SDS011;63936;51.006;13.764;2023-10-19T05:58:02;12;;;7;;
75342;SDS011;63936;51.006;13.764;2023-10-19T06:00:03;13;;;8;;
75342;SDS011;63936;51.006;13.764;2023-10-19T06:02:01;14;;;8;;
75342;SDS011;63936;51.006;13.764;2023-10-19T06:04:02;13;;;8;;
75342;SDS011;63936;51.006;13.764;2023-10-19T06:06:02;13;;;8;;
75342;SDS011;63936;51.006;13.764;2023-10-19T06:08:02;12;;;7;;
75342;SDS011;63936;51.006;13.764;2023-10-19T06:10:06;12;;;8;;
75342;SDS011;63936;51.006;13.764;2023-10-19T06:12:01;14;;;8;;
75342;SDS011;63936;51.006;13.764;2023-10-19T06:14:02;12;;;7;;
75342;SDS011;63936;51.006;13.764;2023-10-19T06:16:02;14;;;9;;
75342;SDS011;63936;51.006;13.764;2023-10-19T06:18:02;14;;;9;;
75342;SDS011;63936;51.006;13.764;2023-10-19T06:20:06;16;;;9;;
75342;SDS011;63936;51.006;13.764;2023-10-19T06:22:02;13;;;8;;
75342;SDS011;63936;51.006;13.764;2023-10-19T06:24:02;14;;;9;;
75342;SDS011;63936;51.006;13.764;2023-10-19T06:26:08;16;;;10;;
75342;SDS011;63936;51.006;13.764;2023-10-19T06:28:02;15;;;9;;
75342;SDS011;63936;51.006;13.764;2023-10-19T06:30:03;16;;;10;;
75342;SDS011;63936;51.006;13.764;2023-10-19T06:32:02;19;;;11;;
75342;SDS011;63936;51.006;13.764;2023-10-19T06:34:03;18;;;11;;
75342;SDS011;63936;51.006;13.764;2023-10-19T06:36:02;22;;;13;;
75342;SDS011;63936;51.006;13.764;2023-10-19T06:38:02;20;;;12;;
75342;SDS011;63936;51.006;13.764;2023-10-19T06:40:02;18;;;12;;
75342;SDS011;63936;51.006;13.764;2023-10-19T06:42:01;20;;;13;;
75342;SDS011;63936;51.006;13.764;2023-10-19T06:44:01;23;;;13;;
75342;SDS011;63936;51.006;13.764;2023-10-19T06:46:01;19;;;12;;
75342;SDS011;63936;51.006;13.764;2023-10-19T06:48:02;17;;;11;;
75342;SDS011;63936;51.006;13.764;2023-10-19T06:50:04;17;;;10;;
75342;SDS011;63936;51.006;13.764;2023-10-19T06:52:02;17;;;10;;
75342;SDS011;63936;51.006;13.764;2023-10-19T06:54:01;17;;;11;;
75342;SDS011;63936;51.006;13.764;2023-10-19T06:56:02;16;;;11;;
75342;SDS011;63936;51.006;13.764;2023-10-19T06:58:01;17;;;11;;
75342;SDS011;63936;51.006;13.764;2023-10-19T07:00:02;17;;;11;;
75342;SDS011;63936;51.006;13.764;2023-10-19T07:02:02;13;;;8;;
75342;SDS011;63936;51.006;13.764;2023-10-19T07:04:02;14;;;8;;
75342;SDS011;63936;51.006;13.764;2023-10-19T07:06:01;13;;;8;;
75342;SDS011;63936;51.006;13.764;2023-10-19T07:08:02;16;;;10;;
75342;SDS011;63936;51.006;13.764;2023-10-19T07:10:06;12;;;8;;
75342;SDS011;63936;51.006;13.764;2023-10-19T07:12:02;14;;;9;;
75342;SDS011;63936;51.006;13.764;2023-10-19T07:14:02;15;;;9;;
75342;SDS011;63936;51.006;13.764;2023-10-19T07:16:02;16;;;12;;
75342;SDS011;63936;51.006;13.764;2023-10-19T07:18:01;20;;;12;;
75342;SDS011;63936;51.006;13.764;2023-10-19T07:20:03;19;;;12;;
75342;SDS011;63936;51.006;13.764;2023-10-19T07:22:01;17;;;11;;
75342;SDS011;63936;51.006;13.764;2023-10-19T07:24:01;19;;;11;;
75342;SDS011;63936;51.006;13.764;2023-10-19T07:26:01;19;;;12;;
75342;SDS011;63936;51.006;13.764;2023-10-19T07:28:01;15;;;9;;
75342;SDS011;63936;51.006;13.764;2023-10-19T07:30:03;12;;;8;;
75342;SDS011;63936;51.006;13.764;2023-10-19T07:32:01;14;;;10;;
75342;SDS011;63936;51.006;13.764;2023-10-19T07:34:01;12;;;8;;
75342;SDS011;63936;51.006;13.764;2023-10-19T07:36:01;14;;;9;;
75342;SDS011;63936;51.006;13.764;2023-10-19T07:38:01;14;;;9;;
75342;SDS011;63936;51.006;13.764;2023-10-19T07:40:03;12;;;8;;
75342;SDS011;63936;51.006;13.764;2023-10-19T07:42:01;13;;;7;;
75342;SDS011;63936;51.006;13.764;2023-10-19T07:44:01;14;;;9;;
75342;SDS011;63936;51.006;13.764;2023-10-19T07:46:02;16;;;10;;
75342;SDS011;63936;51.006;13.764;2023-10-19T07:48:02;15;;;9;;
75342;SDS011;63936;51.006;13.764;2023-10-19T07:50:02;10;;;6;;
75342;SDS011;63936;51.006;13.764;2023-10-19T07:52:01;13;;;9;;
75342;SDS011;63936;51.006;13.764;2023-10-19T07:54:02;18;;;11;;
75342;SDS011;63936;51.006;13.764;2023-10-19T07:56:01;16;;;10;;
75342;SDS011;63936;51.006;13.764;2023-10-19T07:58:01;17;;;10;;
75342;SDS011;63936;51.006;13.764;2023-10-19T08:00:03;16;;;10;;
75342;SDS011;63936;51.006;13.764;2023-10-19T08:02:02;18;;;11;;
75342;SDS011;63936;51.006;13.764;2023-10-19T08:04:02;18;;;11;;
75342;SDS011;63936;51.006;13.764;2023-10-19T08:06:02;20;;;14;;
75342;SDS011;63936;51.006;13.764;2023-10-19T08:08:02;19;;;12;;
75342;SDS011;63936;51.006;13.764;2023-10-19T08:10:02;19;;;11;;
75342;SDS011;63936;51.006;13.764;2023-10-19T08:12:01;17;;;10;;
75342;SDS011;63936;51.006;13.764;2023-10-19T08:14:01;19;;;12;;
75342;SDS011;63936;51.006;13.764;2023-10-19T08:16:01;19;;;13;;
75342;SDS011;63936;51.006;13.764;2023-10-19T08:18:01;17;;;10;;
75342;SDS011;63936;51.006;13.764;2023-10-19T08:20:02;17;;;10;;
75342;SDS011;63936;51.006;13.764;2023-10-19T08:22:01;15;;;9;;
75342;SDS011;63936;51.006;13.764;2023-10-19T08:24:01;16;;;10;;
75342;SDS011;63936;51.006;13.764;2023-10-19T08:26:02;12;;;8;;
75342;SDS011;63936;51.006;13.764;2023-10-19T08:28:01;12;;;9;;
75342;SDS011;63936;51.006;13.764;2023-10-19T08:30:02;15;;;10;;
75342;SDS011;63936;51.006;13.764;2023-10-19T08:32:02;14;;;9;;
75342;SDS011;63936;51.006;13.764;2023-10-19T08:34:01;12;;;8;;
75342;SDS011;63936;51.006;13.764;2023-10-19T08:36:02;14;;;9;;
75342;SDS011;63936;51.006;13.764;2023-10-19T08:38:02;16;;;9;;
75342;SDS011;63936;51.006;13.764;2023-10-19T08:40:02;17;;;11;;
75342;SDS011;63936;51.006;13.764;2023-10-19T08:42:01;18;;;11;;
75342;SDS011;63936;51.006;13.764;2023-10-19T08:44:01;18;;;11;;
75342;SDS011;63936;51.006;13.764;2023-10-19T08:46:01;19;;;12;;
75342;SDS011;63936;51.006;13.764;2023-10-19T08:48:01;20;;;14;;
75342;SDS011;63936;51.006;13.764;2023-10-19T08:50:02;19;;;11;;
75342;SDS011;63936;51.006;13.764;2023-10-19T08:52:01;17;;;10;;
75342;SDS011;63936;51.006;13.764;2023-10-19T08:54:01;17;;;11;;
75342;SDS011;63936;51.006;13.764;2023-10-19T08:56:01;17;;;10;;
75342;SDS011;63936;51.006;13.764;2023-10-19T08:58:01;17;;;10;;
75342;SDS011;63936;51.006;13.764;2023-10-19T09:00:03;18;;;11;;
75342;SDS011;63936;51.006;13.764;2023-10-19T09:02:01;16;;;11;;
75342;SDS011;63936;51.006;13.764;2023-10-19T09:04:01;16;;;11;;
75342;SDS011;63936;51.006;13.764;2023-10-19T09:06:02;16;;;11;;
75342;SDS011;63936;51.006;13.764;2023-10-19T09:08:02;17;;;11;;
75342;SDS011;63936;51.006;13.764;2023-10-19T09:10:02;15;;;10;;
75342;SDS011;63936;51.006;13.764;2023-10-19T09:12:01;18;;;9;;
75342;SDS011;63936;51.006;13.764;2023-10-19T09:14:01;15;;;10;;
75342;SDS011;63936;51.006;13.764;2023-10-19T09:16:04;15;;;10;;
75342;SDS011;63936;51.006;13.764;2023-10-19T09:18:11;14;;;8;;
75342;SDS011;63936;51.006;13.764;2023-10-19T09:20:02;11;;;7;;
75342;SDS011;63936;51.006;13.764;2023-10-19T09:22:02;12;;;8;;
75342;SDS011;63936;51.006;13.764;2023-10-19T09:24:02;9;;;6;;
75342;SDS011;63936;51.006;13.764;2023-10-19T09:26:01;11;;;6;;
75342;SDS011;63936;51.006;13.764;2023-10-19T09:28:01;13;;;9;;
75342;SDS011;63936;51.006;13.764;2023-10-19T09:30:02;13;;;9;;
75342;SDS011;63936;51.006;13.764;2023-10-19T09:32:02;13;;;10;;
75342;SDS011;63936;51.006;13.764;2023-10-19T09:34:02;9;;;6;;
75342;SDS011;63936;51.006;13.764;2023-10-19T09:36:01;10;;;8;;
75342;SDS011;63936;51.006;13.764;2023-10-19T09:38:01;12;;;8;;
75342;SDS011;63936;51.006;13.764;2023-10-19T09:40:02;12;;;8;;
75342;SDS011;63936;51.006;13.764;2023-10-19T09:42:02;15;;;10;;
75342;SDS011;63936;51.006;13.764;2023-10-19T09:44:01;13;;;8;;
75342;SDS011;63936;51.006;13.764;2023-10-19T09:46:05;12;;;8;;
75342;SDS011;63936;51.006;13.764;2023-10-19T09:48:02;14;;;10;;
75342;SDS011;63936;51.006;13.764;2023-10-19T09:50:02;17;;;10;;
75342;SDS011;63936;51.006;13.764;2023-10-19T09:52:01;16;;;9;;
75342;SDS011;63936;51.006;13.764;2023-10-19T09:54:02;15;;;9;;
75342;SDS011;63936;51.006;13.764;2023-10-19T09:56:01;15;;;11;;
75342;SDS011;63936;51.006;13.764;2023-10-19T09:58:02;17;;;11;;
75342;SDS011;63936;51.006;13.764;2023-10-19T10:00:03;17;;;12;;
75342;SDS011;63936;51.006;13.764;2023-10-19T10:02:04;17;;;12;;
75342;SDS011;63936;51.006;13.764;2023-10-19T10:04:02;15;;;9;;
75342;SDS011;63936;51.006;13.764;2023-10-19T10:06:01;9;;;6;;
75342;SDS011;63936;51.006;13.764;2023-10-19T10:08:28;18;;;7;;
75342;SDS011;63936;51.006;13.764;2023-10-19T10:10:03;13;;;8;;
75342;SDS011;63936;51.006;13.764;2023-10-19T10:12:15;10;;;7;;
75342;SDS011;63936;51.006;13.764;2023-10-19T10:14:01;16;;;13;;
75342;SDS011;63936;51.006;13.764;2023-10-19T10:16:02;16;;;11;;
75342;SDS011;63936;51.006;13.764;2023-10-19T10:18:11;12;;;10;;
75342;SDS011;63936;51.006;13.764;2023-10-19T10:20:33;13;;;8;;
75342;SDS011;63936;51.006;13.764;2023-10-19T10:22:04;13;;;8;;
75342;SDS011;63936;51.006;13.764;2023-10-19T10:24:02;14;;;10;;
75342;SDS011;63936;51.006;13.764;2023-10-19T10:26:01;14;;;10;;
75342;SDS011;63936;51.006;13.764;2023-10-19T10:28:02;15;;;10;;
75342;SDS011;63936;51.006;13.764;2023-10-19T10:30:04;16;;;10;;
75342;SDS011;63936;51.006;13.764;2023-10-19T10:32:02;14;;;9;;
75342;SDS011;63936;51.006;13.764;2023-10-19T10:34:02;15;;;12;;
75342;SDS011;63936;51.006;13.764;2023-10-19T10:36:01;13;;;8;;
75342;SDS011;63936;51.006;13.764;2023-10-19T10:38:01;13;;;10;;
75342;SDS011;63936;51.006;13.764;2023-10-19T10:40:01;17;;;11;;
75342;SDS011;63936;51.006;13.764;2023-10-19T10:42:02;17;;;12;;
75342;SDS011;63936;51.006;13.764;2023-10-19T10:44:01;18;;;12;;
75342;SDS011;63936;51.006;13.764;2023-10-19T10:46:03;19;;;12;;
75342;SDS011;63936;51.006;13.764;2023-10-19T10:48:01;14;;;11;;
75342;SDS011;63936;51.006;13.764;2023-10-19T10:50:02;15;;;12;;
75342;SDS011;63936;51.006;13.764;2023-10-19T10:52:02;18;;;12;;
75342;SDS011;63936;51.006;13.764;2023-10-19T10:54:02;18;;;13;;
75342;SDS011;63936;51.006;13.764;2023-10-19T10:56:01;16;;;11;;
75342;SDS011;63936;51.006;13.764;2023-10-19T10:58:01;16;;;11;;
75342;SDS011;63936;51.006;13.764;2023-10-19T11:00:04;18;;;12;;
75342;SDS011;63936;51.006;13.764;2023-10-19T11:02:01;20;;;14;;
75342;SDS011;63936;51.006;13.764;2023-10-19T11:04:05;21;;;14;;
75342;SDS011;63936;51.006;13.764;2023-10-19T11:06:03;21;;;14;;
75342;SDS011;63936;51.006;13.764;2023-10-19T11:08:02;21;;;14;;
75342;SDS011;63936;51.006;13.764;2023-10-19T11:10:02;22;;;15;;
75342;SDS011;63936;51.006;13.764;2023-10-19T11:12:09;19;;;14;;
75342;SDS011;63936;51.006;13.764;2023-10-19T11:14:08;19;;;14;;
75342;SDS011;63936;51.006;13.764;2023-10-19T11:16:03;19;;;13;;
75342;SDS011;63936;51.006;13.764;2023-10-19T11:18:01;19;;;14;;
75342;SDS011;63936;51.006;13.764;2023-10-19T11:20:02;22;;;17;;
75342;SDS011;63936;51.006;13.764;2023-10-19T11:22:01;21;;;15;;
75342;SDS011;63936;51.006;13.764;2023-10-19T11:24:01;21;;;15;;
75342;SDS011;63936;51.006;13.764;2023-10-19T11:26:01;22;;;17;;
75342;SDS011;63936;51.006;13.764;2023-10-19T11:28:01;24;;;18;;
75342;SDS011;63936;51.006;13.764;2023-10-19T11:30:02;23;;;17;;
75342;SDS011;63936;51.006;13.764;2023-10-19T11:32:01;20;;;15;;
75342;SDS011;63936;51.006;13.764;2023-10-19T11:34:01;18;;;13;;
75342;SDS011;63936;51.006;13.764;2023-10-19T11:36:01;22;;;15;;
75342;SDS011;63936;51.006;13.764;2023-10-19T11:38:01;24;;;18;;
75342;SDS011;63936;51.006;13.764;2023-10-19T11:40:02;26;;;19;;
75342;SDS011;63936;51.006;13.764;2023-10-19T11:42:01;25;;;20;;
75342;SDS011;63936;51.006;13.764;2023-10-19T11:44:01;25;;;18;;
75342;SDS011;63936;51.006;13.764;2023-10-19T11:46:02;25;;;19;;
75342;SDS011;63936;51.006;13.764;2023-10-19T11:48:02;22;;;16;;
75342;SDS011;63936;51.006;13.764;2023-10-19T11:50:03;22;;;17;;
75342;SDS011;63936;51.006;13.764;2023-10-19T11:52:03;25;;;19;;
75342;SDS011;63936;51.006;13.764;2023-10-19T11:54:01;24;;;18;;
75342;SDS011;63936;51.006;13.764;2023-10-19T11:56:02;22;;;17;;
75342;SDS011;63936;51.006;13.764;2023-10-19T11:58:01;21;;;16;;
75342;SDS011;63936;51.006;13.764;2023-10-19T12:00:03;22;;;18;;
75342;SDS011;63936;51.006;13.764;2023-10-19T12:02:01;24;;;18;;
75342;SDS011;63936;51.006;13.764;2023-10-19T12:04:02;22;;;17;;
75342;SDS011;63936;51.006;13.764;2023-10-19T12:06:01;22;;;18;;
75342;SDS011;63936;51.006;13.764;2023-10-19T12:08:01;21;;;17;;
75342;SDS011;63936;51.006;13.764;2023-10-19T12:10:02;25;;;18;;
75342;SDS011;63936;51.006;13.764;2023-10-19T12:12:01;20;;;16;;
75342;SDS011;63936;51.006;13.764;2023-10-19T12:14:01;21;;;17;;
75342;SDS011;63936;51.006;13.764;2023-10-19T12:16:01;22;;;18;;
75342;SDS011;63936;51.006;13.764;2023-10-19T12:18:01;21;;;15;;
75342;SDS011;63936;51.006;13.764;2023-10-19T12:20:02;20;;;15;;
75342;SDS011;63936;51.006;13.764;2023-10-19T12:22:01;19;;;16;;
75342;SDS011;63936;51.006;13.764;2023-10-19T12:24:01;22;;;14;;
75342;SDS011;63936;51.006;13.764;2023-10-19T12:26:02;23;;;17;;
75342;SDS011;63936;51.006;13.764;2023-10-19T12:28:02;23;;;16;;
75342;SDS011;63936;51.006;13.764;2023-10-19T12:30:02;22;;;16;;
75342;SDS011;63936;51.006;13.764;2023-10-19T12:32:01;24;;;19;;
75342;SDS011;63936;51.006;13.764;2023-10-19T12:34:01;24;;;19;;
75342;SDS011;63936;51.006;13.764;2023-10-19T12:36:01;24;;;17;;
75342;SDS011;63936;51.006;13.764;2023-10-19T12:38:01;24;;;18;;
75342;SDS011;63936;51.006;13.764;2023-10-19T12:40:01;21;;;16;;
75342;SDS011;63936;51.006;13.764;2023-10-19T12:42:01;22;;;18;;
75342;SDS011;63936;51.006;13.764;2023-10-19T12:44:01;24;;;20;;
75342;SDS011;63936;51.006;13.764;2023-10-19T12:46:01;23;;;18;;